Time;durP1;ratioP1;P1;durP2;ratioP2;P2;SDS_P1;SDS_P2;PMS_P1;PMS_P2;Temp;Humidity;BMP_temperature;BMP_pressure;BME280_temperature;BME280_humidity;BME280_pressure;Samples;Min_cycle;Max_cycle;Signal;HPM_P1;HPM_P2
2023/06/25 00:00:18;;;;;;;6.13;5.50;;;;;;;26.42;57.37;99275.25;5092179;28;20191;-65
2023/06/25 00:02:45;;;;;;;6.20;5.60;;;;;;;26.38;58.08;99279.72;5091897;28;20599;-65
2023/06/25 00:05:13;;;;;;;6.83;6.30;;;;;;;26.43;57.83;99276.09;5085305;28;20611;-66
2023/06/25 00:07:41;;;;;;;6.67;5.77;;;;;;;26.49;58.98;99277.56;5071873;28;20196;-66
2023/06/25 00:10:08;;;;;;;6.03;5.63;;;;;;;26.53;58.31;99281.31;5071554;28;20251;-66
2023/06/25 00:12:35;;;;;;;6.33;5.83;;;;;;;26.49;57.97;99283.03;5072591;28;20245;-65
2023/06/25 00:15:02;;;;;;;6.10;5.60;;;;;;;26.37;57.69;99278.09;5080555;28;20315;-66
2023/06/25 00:17:29;;;;;;;6.20;5.70;;;;;;;26.40;58.50;99282.94;5095746;28;20578;-65
2023/06/25 00:19:56;;;;;;;8.67;5.77;;;;;;;26.38;57.35;99270.75;5096199;28;20187;-66
2023/06/25 00:22:24;;;;;;;7.50;7.03;;;;;;;26.36;57.91;99272.94;5095971;28;20191;-65
2023/06/25 00:24:51;;;;;;;7.17;6.00;;;;;;;26.37;57.96;99288.22;5096029;28;20273;-65
2023/06/25 00:27:18;;;;;;;6.60;6.10;;;;;;;26.27;57.76;99294.66;5094817;28;20244;-66
2023/06/25 00:29:45;;;;;;;7.00;5.77;;;;;;;26.24;58.36;99294.44;5096176;28;20199;-65
2023/06/25 00:32:15;;;;;;;10.57;6.37;;;;;;;26.21;57.88;99289.63;5095826;28;20235;-67
2023/06/25 00:34:42;;;;;;;6.30;5.83;;;;;;;26.18;57.97;99292.94;5095586;28;20202;-65
2023/06/25 00:37:16;;;;;;;5.97;5.63;;;;;;;26.15;57.86;99285.38;5095308;28;20218;-66
2023/06/25 00:39:44;;;;;;;6.10;5.73;;;;;;;25.98;57.15;99282.44;5095232;28;20179;-65
2023/06/25 00:42:11;;;;;;;8.67;5.33;;;;;;;25.94;58.02;99289.59;5095426;28;20191;-66
2023/06/25 00:44:40;;;;;;;5.83;5.47;;;;;;;25.93;57.88;99287.94;5095591;28;20256;-66
2023/06/25 00:47:11;;;;;;;6.20;5.70;;;;;;;25.93;57.92;99287.94;5095312;28;20191;-66
2023/06/25 00:49:38;;;;;;;6.23;5.77;;;;;;;25.85;57.98;99294.09;5095275;28;20191;-66
2023/06/25 00:52:08;;;;;;;6.00;5.50;;;;;;;25.78;58.18;99285.50;5095520;28;20226;-66
2023/06/25 00:54:38;;;;;;;6.40;5.80;;;;;;;25.72;58.43;99287.50;5095357;28;20191;-66
2023/06/25 00:57:08;;;;;;;7.00;5.70;;;;;;;25.33;59.59;99294.44;5095390;28;20282;-66
2023/06/25 00:59:36;;;;;;;5.80;5.40;;;;;;;25.11;60.23;99286.06;5095265;28;20248;-65
2023/06/25 01:02:13;;;;;;;5.60;5.10;;;;;;;24.68;61.64;99288.88;5095274;28;20197;-65
2023/06/25 01:04:46;;;;;;;7.23;5.67;;;;;;;24.54;61.44;99284.41;5094857;28;20678;-65
2023/06/25 01:07:17;;;;;;;6.23;5.27;;;;;;;24.02;63.78;99284.50;5095345;28;20264;-65
2023/06/25 01:09:47;;;;;;;5.30;4.90;;;;;;;24.11;63.86;99283.56;5095168;28;20273;-65
2023/06/25 01:12:15;;;;;;;5.43;5.03;;;;;;;24.31;62.86;99282.53;5095029;28;20218;-65
2023/06/25 01:14:42;;;;;;;5.63;5.23;;;;;;;24.36;62.87;99285.16;5095048;28;20195;-65
2023/06/25 01:17:10;;;;;;;7.80;5.27;;;;;;;24.45;62.65;99280.72;5095032;28;20187;-67
2023/06/25 01:19:37;;;;;;;5.53;5.13;;;;;;;24.56;62.43;99280.31;5093218;28;20279;-64
2023/06/25 01:22:05;;;;;;;5.60;5.30;;;;;;;24.54;62.36;99270.84;5094587;28;20201;-65
2023/06/25 01:24:34;;;;;;;6.83;5.27;;;;;;;24.67;61.88;99283.72;5093714;28;20210;-65
2023/06/25 01:27:03;;;;;;;5.93;5.20;;;;;;;24.70;63.22;99275.78;5094577;28;20191;-66
2023/06/25 01:29:32;;;;;;;5.57;5.07;;;;;;;24.81;61.96;99277.28;5094715;28;20226;-66
2023/06/25 01:31:59;;;;;;;6.03;5.07;;;;;;;24.83;61.61;99288.63;5094627;28;20234;-65
2023/06/25 01:34:26;;;;;;;6.33;4.83;;;;;;;24.86;61.10;99289.97;5094552;28;20191;-65
2023/06/25 01:36:54;;;;;;;5.47;5.17;;;;;;;24.83;60.77;99285.91;5094806;28;20195;-65
2023/06/25 01:39:22;;;;;;;6.30;5.80;;;;;;;24.83;61.24;99280.47;5094481;28;20191;-66
2023/06/25 01:41:50;;;;;;;6.03;4.93;;;;;;;24.83;61.22;99280.47;5094742;28;20203;-65
2023/06/25 01:44:19;;;;;;;9.20;6.03;;;;;;;24.93;60.77;99284.97;5094387;28;20195;-65
2023/06/25 01:46:46;;;;;;;7.43;5.50;;;;;;;24.99;61.13;99283.78;5093895;28;20192;-65
2023/06/25 01:49:12;;;;;;;6.53;5.40;;;;;;;25.06;60.95;99283.44;5092587;28;20237;-66
2023/06/25 01:51:39;;;;;;;5.30;4.90;;;;;;;25.08;60.65;99281.22;5093977;28;20608;-65
2023/06/25 01:54:06;;;;;;;6.03;5.63;;;;;;;25.00;60.48;99286.22;5094211;28;20245;-66
2023/06/25 01:56:32;;;;;;;5.47;5.07;;;;;;;25.04;62.04;99289.94;5093951;28;20613;-65
2023/06/25 01:59:01;;;;;;;6.20;5.33;;;;;;;25.13;61.35;99289.28;5094172;28;20199;-66
2023/06/25 02:01:28;;;;;;;5.47;4.97;;;;;;;25.14;60.87;99280.84;5093850;28;20228;-66
2023/06/25 02:03:54;;;;;;;5.63;5.13;;;;;;;25.18;59.98;99281.06;5094078;28;20247;-65
2023/06/25 02:06:21;;;;;;;5.67;5.37;;;;;;;25.16;59.77;99277.81;5078328;28;20188;-65
2023/06/25 02:08:48;;;;;;;6.37;5.10;;;;;;;24.90;60.64;99267.34;5073400;28;20672;-65
2023/06/25 02:11:14;;;;;;;5.70;5.17;;;;;;;24.90;62.14;99274.69;5073364;28;20279;-65
2023/06/25 02:13:41;;;;;;;6.93;5.20;;;;;;;25.07;62.51;99279.59;5073278;28;20701;-65
2023/06/25 02:16:09;;;;;;;5.53;5.10;;;;;;;25.08;62.78;99270.34;5073648;28;20253;-66
2023/06/25 02:18:37;;;;;;;5.60;5.10;;;;;;;25.12;62.12;99264.03;5078074;28;20614;-66
2023/06/25 02:21:04;;;;;;;5.43;5.10;;;;;;;25.16;61.46;99266.94;5092317;28;20252;-66
2023/06/25 02:23:31;;;;;;;5.37;4.97;;;;;;;25.14;62.38;99269.19;5093432;28;20199;-65
2023/06/25 02:25:57;;;;;;;6.87;6.10;;;;;;;25.22;61.58;99271.19;5093415;28;20221;-66
2023/06/25 02:28:24;;;;;;;5.40;5.00;;;;;;;25.13;62.97;99273.78;5093308;28;20540;-66
2023/06/25 02:30:51;;;;;;;6.67;6.10;;;;;;;25.15;62.50;99277.00;5093271;28;20231;-66
2023/06/25 02:33:19;;;;;;;8.03;5.93;;;;;;;24.94;63.30;99271.09;5093704;28;20256;-66
2023/06/25 02:35:45;;;;;;;5.53;5.20;;;;;;;24.99;64.09;99273.72;5093158;28;20195;-66
2023/06/25 02:38:12;;;;;;;5.57;5.07;;;;;;;25.06;63.94;99264.41;5093429;28;20249;-66
2023/06/25 02:40:40;;;;;;;6.27;5.83;;;;;;;25.08;63.02;99259.47;5093350;28;20191;-66
2023/06/25 02:43:06;;;;;;;6.50;5.97;;;;;;;25.04;63.82;99260.06;5093088;28;20252;-66
2023/06/25 02:45:33;;;;;;;7.23;5.43;;;;;;;25.03;64.47;99269.31;5093198;28;20187;-66
2023/06/25 02:48:00;;;;;;;6.13;5.73;;;;;;;25.08;64.02;99267.63;5092529;28;20693;-67
2023/06/25 02:50:28;;;;;;;12.07;5.97;;;;;;;25.07;63.55;99263.28;5092516;28;20244;-66
2023/06/25 02:52:55;;;;;;;7.03;6.40;;;;;;;24.93;63.73;99258.59;5092781;28;20227;-65
2023/06/25 02:55:21;;;;;;;7.50;5.80;;;;;;;24.98;64.03;99269.41;5092328;28;20191;-66
2023/06/25 02:57:48;;;;;;;7.27;6.10;;;;;;;24.98;65.24;99270.50;5092495;28;20260;-65
2023/06/25 03:00:15;;;;;;;6.73;5.60;;;;;;;25.04;64.96;99265.50;5092935;28;20264;-65
2023/06/25 03:02:42;;;;;;;6.57;5.73;;;;;;;25.11;64.68;99275.19;5093013;28;20255;-65
2023/06/25 03:05:09;;;;;;;6.27;5.77;;;;;;;25.24;64.74;99274.44;5092420;28;20183;-63
2023/06/25 03:07:37;;;;;;;7.07;5.87;;;;;;;25.37;64.44;99265.56;5092592;28;20191;-65
2023/06/25 03:10:04;;;;;;;10.13;5.57;;;;;;;25.47;64.51;99273.56;5092791;28;20195;-64
2023/06/25 03:12:31;;;;;;;5.63;5.33;;;;;;;25.55;64.79;99275.59;5092755;28;20591;-64
2023/06/25 03:14:58;;;;;;;5.50;5.00;;;;;;;25.67;65.03;99267.72;5092741;28;20195;-64
2023/06/25 03:17:24;;;;;;;6.47;5.80;;;;;;;25.99;63.03;99275.88;5092759;28;20248;-64
2023/06/25 03:19:51;;;;;;;7.60;5.60;;;;;;;26.21;62.30;99276.00;5091195;28;20199;-65
2023/06/25 03:22:18;;;;;;;5.47;5.07;;;;;;;26.33;61.38;99279.03;5092681;28;20260;-65
2023/06/25 03:24:46;;;;;;;5.93;5.43;;;;;;;26.37;61.90;99271.88;5092291;28;20195;-65
2023/06/25 03:27:12;;;;;;;7.67;5.70;;;;;;;26.40;62.58;99271.22;5092064;28;20188;-65
2023/06/25 03:29:39;;;;;;;7.27;6.57;;;;;;;26.41;61.37;99278.31;5092206;28;20196;-64
2023/06/25 03:32:07;;;;;;;7.10;6.47;;;;;;;26.36;61.97;99270.22;5092411;28;20682;-64
2023/06/25 03:34:33;;;;;;;6.43;6.03;;;;;;;26.39;62.32;99280.53;5092031;28;20248;-64
2023/06/25 03:37:00;;;;;;;6.43;5.80;;;;;;;26.45;62.26;99279.31;5092106;28;20191;-65
2023/06/25 03:39:27;;;;;;;7.77;7.27;;;;;;;26.34;62.86;99275.97;5092393;28;20196;-65
2023/06/25 03:41:55;;;;;;;7.17;6.47;;;;;;;26.32;63.54;99275.50;5091513;28;20250;-65
2023/06/25 03:44:21;;;;;;;10.87;6.80;;;;;;;26.33;63.68;99279.03;5091525;28;20191;-67
2023/06/25 03:46:48;;;;;;;7.20;6.70;;;;;;;26.60;62.67;99277.09;5091935;28;20199;-65
2023/06/25 03:49:15;;;;;;;7.67;6.30;;;;;;;26.81;61.98;99278.28;5092000;28;20187;-65
2023/06/25 03:51:41;;;;;;;6.70;6.23;;;;;;;26.95;61.25;99273.56;5091449;28;20603;-65
2023/06/25 03:54:08;;;;;;;7.63;7.10;;;;;;;26.80;62.41;99270.41;5091678;28;20198;-64
2023/06/25 03:56:35;;;;;;;72.07;11.50;;;;;;;26.60;62.81;99270.84;5091688;28;20635;-64
2023/06/25 03:59:03;;;;;;;14.40;7.73;;;;;;;26.45;63.74;99273.88;5092108;28;20187;-66
2023/06/25 04:01:29;;;;;;;8.33;7.03;;;;;;;26.55;63.81;99268.19;5091649;28;20659;-65
2023/06/25 04:03:56;;;;;;;8.43;7.60;;;;;;;26.80;62.93;99267.66;5092113;28;20199;-65
2023/06/25 04:06:23;;;;;;;8.00;7.40;;;;;;;27.13;62.26;99269.88;5075969;28;20257;-64
2023/06/25 04:08:49;;;;;;;7.83;6.53;;;;;;;27.76;59.85;99272.44;5071451;28;20656;-65
2023/06/25 04:11:16;;;;;;;7.93;6.23;;;;;;;28.53;56.94;99276.28;5071534;28;20630;-64
2023/06/25 04:13:43;;;;;;;7.10;6.47;;;;;;;29.13;55.79;99274.47;5087004;28;20203;-64
2023/06/25 04:16:11;;;;;;;6.23;5.83;;;;;;;29.66;53.30;99283.13;5091804;28;20240;-64
2023/06/25 04:18:38;;;;;;;5.83;5.43;;;;;;;30.27;51.57;99279.06;5091726;28;20551;-65
2023/06/25 04:21:05;;;;;;;5.90;5.50;;;;;;;30.66;50.25;99279.47;5091764;28;20286;-65
2023/06/25 04:23:32;;;;;;;5.70;5.40;;;;;;;31.36;48.05;99281.41;5091543;28;20663;-65
2023/06/25 04:25:58;;;;;;;5.60;5.10;;;;;;;31.81;46.33;99288.56;5091388;28;20225;-64
2023/06/25 04:28:25;;;;;;;5.50;5.10;;;;;;;31.79;46.26;99285.34;5091414;28;20188;-66
2023/06/25 04:30:52;;;;;;;15.03;5.80;;;;;;;32.23;45.32;99284.50;5091331;28;20767;-65
2023/06/25 04:33:20;;;;;;;5.27;4.97;;;;;;;32.50;44.40;99299.56;5091634;28;20223;-65
2023/06/25 04:35:47;;;;;;;5.07;4.77;;;;;;;32.69;43.69;99288.75;5091202;28;20202;-65
2023/06/25 04:38:15;;;;;;;5.63;4.37;;;;;;;33.25;42.46;99291.28;5091591;28;20198;-66
2023/06/25 04:40:42;;;;;;;8.27;4.53;;;;;;;33.44;42.12;99289.84;5091575;28;20226;-65
2023/06/25 04:43:08;;;;;;;7.13;4.50;;;;;;;33.55;41.36;99296.47;5090301;28;20192;-68
2023/06/25 04:45:35;;;;;;;7.73;4.83;;;;;;;33.72;40.91;99293.38;5091371;28;20217;-68
2023/06/25 04:48:02;;;;;;;4.57;4.17;;;;;;;33.85;40.66;99295.75;5091182;28;20667;-68
2023/06/25 04:50:30;;;;;;;3.97;3.67;;;;;;;34.03;40.34;99301.72;5091423;28;20192;-69
2023/06/25 04:52:57;;;;;;;4.40;3.90;;;;;;;34.43;39.15;99307.88;5091174;28;20655;-69
2023/06/25 04:55:23;;;;;;;4.60;4.28;;;;;;;34.07;39.75;99305.38;5091352;28;20210;-67
2023/06/25 04:57:51;;;;;;;4.72;3.47;;;;;;;33.97;39.89;99314.19;5091681;28;20320;-67
2023/06/25 05:00:18;;;;;;;3.63;3.42;;;;;;;34.14;39.64;99319.34;5094571;28;20195;-67
2023/06/25 05:02:44;;;;;;;4.03;3.65;;;;;;;34.28;39.48;99323.25;5094688;28;20263;-67
2023/06/25 05:05:11;;;;;;;3.95;3.65;;;;;;;34.60;38.56;99326.81;5094420;28;20196;-68
2023/06/25 05:07:39;;;;;;;4.50;4.10;;;;;;;34.93;37.94;99330.00;5095083;28;20191;-66
2023/06/25 05:10:07;;;;;;;4.35;4.05;;;;;;;34.91;37.92;99327.59;5094272;28;20620;-69
2023/06/25 05:12:33;;;;;;;4.40;4.00;;;;;;;35.03;37.82;99329.44;5092878;28;20223;-68
2023/06/25 05:15:01;;;;;;;4.15;3.75;;;;;;;35.36;36.92;99329.78;5094634;28;20735;-69
2023/06/25 05:17:27;;;;;;;4.55;4.03;;;;;;;35.73;35.57;99331.72;5094812;28;20191;-70
2023/06/25 05:19:54;;;;;;;5.43;4.82;;;;;;;36.10;35.56;99332.06;5094461;28;20191;-69
2023/06/25 05:22:21;;;;;;;5.13;4.72;;;;;;;35.77;35.48;99327.09;5094735;28;20260;-69
2023/06/25 05:24:49;;;;;;;4.53;4.22;;;;;;;35.94;35.93;99329.41;5094678;28;20199;-69
2023/06/25 05:27:15;;;;;;;7.50;5.65;;;;;;;36.28;35.86;99341.47;5094576;28;20192;-70
2023/06/25 05:29:42;;;;;;;6.53;5.25;;;;;;;36.22;35.80;99340.97;5094050;28;20249;-69
2023/06/25 05:32:09;;;;;;;6.18;5.63;;;;;;;36.28;35.65;99342.28;5092395;28;20223;-68
2023/06/25 05:34:36;;;;;;;7.60;5.88;;;;;;;36.46;34.50;99337.84;5094664;28;20191;-68
2023/06/25 05:37:03;;;;;;;5.50;5.20;;;;;;;36.43;34.64;99346.91;5076646;28;20187;-68
2023/06/25 05:39:29;;;;;;;6.13;5.72;;;;;;;36.25;34.89;99350.53;5094608;28;20248;-70
2023/06/25 05:41:58;;;;;;;5.15;4.75;;;;;;;36.55;35.16;99345.91;5093668;28;20750;-70
2023/06/25 05:44:25;;;;;;;5.28;4.88;;;;;;;36.32;36.80;99340.38;5094165;28;20649;-71
2023/06/25 05:46:52;;;;;;;6.00;5.50;;;;;;;36.38;35.60;99329.81;5093472;28;20183;-71
2023/06/25 05:49:19;;;;;;;10.43;5.30;;;;;;;36.56;34.68;99339.19;5094222;28;20244;-72
2023/06/25 05:51:45;;;;;;;5.65;5.20;;;;;;;36.61;34.90;99338.88;5094038;28;20241;-70
2023/06/25 05:54:12;;;;;;;5.05;4.82;;;;;;;36.52;34.72;99335.56;5093977;28;20252;-69
2023/06/25 05:56:39;;;;;;;5.95;5.18;;;;;;;36.31;35.83;99335.22;5093807;28;20552;-69
2023/06/25 05:59:07;;;;;;;4.80;4.50;;;;;;;35.89;36.93;99324.16;5094333;28;20191;-70
2023/06/25 06:01:33;;;;;;;5.13;4.65;;;;;;;36.02;36.44;99327.56;5094090;28;20191;-71
2023/06/25 06:04:00;;;;;;;4.82;4.50;;;;;;;35.85;36.59;99326.06;5093811;28;20667;-70
2023/06/25 06:06:27;;;;;;;5.18;4.13;;;;;;;35.48;37.13;99324.91;5077649;28;20230;-69
2023/06/25 06:08:54;;;;;;;6.30;4.00;;;;;;;35.43;37.28;99327.97;5073750;28;20196;-70
2023/06/25 06:11:20;;;;;;;4.45;4.18;;;;;;;35.28;37.64;99325.28;5072754;28;20188;-71
2023/06/25 06:13:47;;;;;;;4.32;3.88;;;;;;;35.19;38.41;99324.66;5080412;28;20600;-72
2023/06/25 06:16:15;;;;;;;6.43;4.60;;;;;;;35.39;37.96;99320.78;5096705;28;20440;-69
2023/06/25 06:18:42;;;;;;;5.60;5.10;;;;;;;35.53;38.05;99324.63;5093343;28;20240;-70
2023/06/25 06:21:09;;;;;;;5.97;4.85;;;;;;;35.83;36.83;99316.53;5093085;28;20187;-69
2023/06/25 06:23:35;;;;;;;4.82;4.53;;;;;;;35.87;36.44;99325.69;5092633;28;20668;-68
2023/06/25 06:26:02;;;;;;;5.28;4.05;;;;;;;35.40;37.61;99322.38;5089924;28;20332;-71
2023/06/25 06:28:29;;;;;;;4.82;3.83;;;;;;;35.43;37.12;99321.66;5091090;28;20953;-70
2023/06/25 06:30:55;;;;;;;7.07;5.28;;;;;;;35.36;36.91;99324.28;5092313;28;20211;-70
2023/06/25 06:33:24;;;;;;;10.07;4.57;;;;;;;34.67;38.17;99315.97;5092675;28;20219;-68
2023/06/25 06:35:50;;;;;;;5.80;4.38;;;;;;;34.75;38.38;99309.44;5092809;28;20249;-67
2023/06/25 06:38:17;;;;;;;5.55;5.03;;;;;;;34.32;40.25;99315.09;5093166;28;20250;-68
2023/06/25 06:40:44;;;;;;;5.05;4.45;;;;;;;34.08;39.56;99316.03;5092915;28;20195;-68
2023/06/25 06:43:11;;;;;;;4.32;3.95;;;;;;;33.47;40.57;99306.47;5092297;28;20256;-68
2023/06/25 06:45:37;;;;;;;4.90;4.50;;;;;;;33.67;40.97;99302.72;5092156;28;20191;-69
2023/06/25 06:48:05;;;;;;;5.57;4.18;;;;;;;33.73;41.77;99300.50;5092004;28;20548;-67
2023/06/25 06:50:33;;;;;;;6.00;4.93;;;;;;;33.22;41.74;99297.50;5091998;28;20282;-70
2023/06/25 06:52:59;;;;;;;4.70;4.40;;;;;;;32.79;43.62;99300.06;5091148;28;20646;-69
2023/06/25 06:55:26;;;;;;;6.47;5.20;;;;;;;32.73;43.29;99298.72;5089297;28;20248;-68
2023/06/25 06:57:53;;;;;;;5.67;4.90;;;;;;;32.88;43.44;99295.28;5086691;28;20195;-70
2023/06/25 07:00:20;;;;;;;7.10;4.45;;;;;;;33.23;43.46;99290.00;5089900;28;20206;-71
2023/06/25 07:02:47;;;;;;;5.22;4.65;;;;;;;33.27;43.36;99282.66;5090610;28;20195;-72
2023/06/25 07:05:13;;;;;;;5.63;5.13;;;;;;;33.55;41.79;99279.94;5084623;28;20671;-71
2023/06/25 07:07:42;;;;;;;5.45;5.05;;;;;;;33.79;41.78;99283.34;5070402;28;20667;-70
2023/06/25 07:10:10;;;;;;;11.50;5.50;;;;;;;34.08;41.31;99273.91;5071291;28;20230;-70
2023/06/25 07:12:37;;;;;;;6.57;4.97;;;;;;;34.30;40.68;99276.00;5070364;28;20226;-72
2023/06/25 07:15:04;;;;;;;13.82;5.10;;;;;;;34.62;39.86;99274.84;5071042;28;20249;-71
2023/06/25 07:17:31;;;;;;;12.50;5.90;;;;;;;34.40;39.55;99267.22;5070341;28;20196;-72
2023/06/25 07:19:57;;;;;;;5.70;5.20;;;;;;;34.35;40.19;99270.25;5069724;28;20192;-71
2023/06/25 07:22:24;;;;;;;5.65;5.25;;;;;;;34.24;40.43;99263.63;5070322;28;20192;-71
2023/06/25 07:24:52;;;;;;;5.80;5.30;;;;;;;34.38;39.83;99266.78;5070349;28;20269;-70
2023/06/25 07:27:19;;;;;;;5.88;5.40;;;;;;;33.94;41.00;99254.22;5088404;28;20198;-72
2023/06/25 07:29:45;;;;;;;6.03;5.72;;;;;;;34.19;40.33;99258.41;5091451;28;20187;-69
2023/06/25 07:32:12;;;;;;;7.00;6.40;;;;;;;34.20;39.74;99257.22;5091970;28;20219;-70
2023/06/25 07:34:39;;;;;;;5.10;4.75;;;;;;;34.17;40.40;99252.44;5092200;28;20244;-69
2023/06/25 07:37:06;;;;;;;6.07;5.57;;;;;;;34.43;38.71;99256.28;5091895;28;20213;-70
2023/06/25 07:39:33;;;;;;;5.60;5.20;;;;;;;34.32;40.45;99246.13;5091741;28;20612;-70
2023/06/25 07:42:02;;;;;;;6.05;5.57;;;;;;;34.42;39.73;99245.59;5091868;28;20714;-70
2023/06/25 07:44:29;;;;;;;6.10;5.60;;;;;;;34.53;39.67;99249.41;5091967;28;20241;-69
2023/06/25 07:46:56;;;;;;;7.15;5.35;;;;;;;34.67;38.52;99242.25;5091823;28;20249;-66
2023/06/25 07:49:23;;;;;;;7.93;5.72;;;;;;;34.96;37.73;99235.41;5092022;28;20195;-67
2023/06/25 07:51:51;;;;;;;6.00;5.43;;;;;;;34.88;37.78;99236.41;5091694;28;20622;-66
2023/06/25 07:54:18;;;;;;;8.52;5.40;;;;;;;35.01;38.15;99232.34;5091853;28;20219;-67
2023/06/25 07:56:45;;;;;;;9.32;5.70;;;;;;;34.63;38.28;99221.22;5090657;28;20187;-66
2023/06/25 07:59:14;;;;;;;6.88;5.97;;;;;;;34.62;38.36;99225.16;5091371;28;20683;-67
2023/06/25 08:01:41;;;;;;;5.90;5.38;;;;;;;34.65;38.24;99229.94;5091768;28;20183;-67
2023/06/25 08:04:08;;;;;;;5.97;5.43;;;;;;;34.87;37.78;99230.06;5091223;28;20242;-65
2023/06/25 08:06:34;;;;;;;6.93;5.55;;;;;;;35.29;36.88;99219.13;5074176;28;20241;-67
2023/06/25 08:09:01;;;;;;;5.95;5.45;;;;;;;35.17;36.29;99214.53;5073486;28;20249;-67
2023/06/25 08:11:28;;;;;;;6.18;5.65;;;;;;;35.34;35.66;99216.06;5071197;28;20737;-68
2023/06/25 08:13:55;;;;;;;6.63;5.50;;;;;;;35.55;34.95;99214.50;5079435;28;20225;-67
2023/06/25 08:16:23;;;;;;;6.40;5.90;;;;;;;35.06;36.40;99213.50;5088569;28;20229;-67
2023/06/25 08:18:50;;;;;;;5.63;5.22;;;;;;;35.07;37.08;99206.03;5091157;28;20226;-67
2023/06/25 08:21:17;;;;;;;6.50;6.00;;;;;;;35.46;34.89;99199.31;5090802;28;20195;-64
2023/06/25 08:23:44;;;;;;;6.13;5.43;;;;;;;35.72;34.23;99199.41;5091586;28;20207;-64
2023/06/25 08:26:12;;;;;;;9.80;5.78;;;;;;;36.06;35.55;99196.47;5089996;28;20192;-66
2023/06/25 08:28:39;;;;;;;6.30;5.68;;;;;;;36.41;34.69;99190.66;5090537;28;20201;-65
2023/06/25 08:31:06;;;;;;;11.52;6.00;;;;;;;36.33;33.07;99189.78;5089233;28;20276;-65
2023/06/25 08:33:35;;;;;;;8.80;6.15;;;;;;;35.64;34.14;99178.34;5092579;28;20223;-65
2023/06/25 08:36:01;;;;;;;13.00;6.88;;;;;;;35.32;37.28;99183.25;5095759;28;20702;-65
2023/06/25 08:38:30;;;;;;;6.80;5.93;;;;;;;35.70;37.33;99182.38;5095475;28;20195;-66
2023/06/25 08:40:57;;;;;;;6.47;5.93;;;;;;;35.85;35.24;99184.25;5095681;28;20248;-64
2023/06/25 08:43:24;;;;;;;12.05;6.00;;;;;;;35.82;33.86;99184.97;5095499;28;20195;-65
2023/06/25 08:45:51;;;;;;;6.40;5.80;;;;;;;35.81;34.91;99177.84;5095428;28;20264;-65
2023/06/25 08:48:18;;;;;;;6.55;6.00;;;;;;;36.02;36.23;99178.19;5095173;28;20199;-65
2023/06/25 08:50:52;;;;;;;8.82;6.20;;;;;;;36.20;33.79;99180.06;5093763;28;20659;-66
2023/06/25 08:53:19;;;;;;;6.07;5.57;;;;;;;35.07;33.98;99170.13;5095264;28;20225;-65
2023/06/25 08:55:48;;;;;;;6.90;6.28;;;;;;;35.19;34.87;99168.00;5093929;28;20187;-66
2023/06/25 08:58:15;;;;;;;6.53;6.13;;;;;;;35.76;33.24;99167.13;5095136;28;20192;-66
2023/06/25 09:00:42;;;;;;;5.93;5.63;;;;;;;36.15;33.01;99165.75;5094681;28;20198;-69
2023/06/25 09:03:08;;;;;;;6.53;6.03;;;;;;;36.41;31.72;99157.44;5094307;28;20375;-66
2023/06/25 09:05:35;;;;;;;6.15;5.68;;;;;;;35.76;32.50;99145.00;5094935;28;20187;-65
2023/06/25 09:08:04;;;;;;;6.22;5.72;;;;;;;35.97;32.77;99156.41;5095144;28;20192;-65
2023/06/25 09:10:32;;;;;;;6.72;6.20;;;;;;;36.11;32.60;99159.38;5094626;28;20256;-64
2023/06/25 09:13:01;;;;;;;6.75;6.25;;;;;;;36.01;31.85;99154.47;5094619;28;20243;-64
2023/06/25 09:15:29;;;;;;;6.82;6.15;;;;;;;36.04;31.90;99153.72;5094847;28;20202;-63
2023/06/25 09:17:57;;;;;;;15.40;6.38;;;;;;;36.16;31.58;99145.22;5094629;28;20191;-64
2023/06/25 09:20:24;;;;;;;8.23;6.53;;;;;;;36.20;32.45;99143.28;5094387;28;20659;-64
2023/06/25 09:22:52;;;;;;;6.57;6.18;;;;;;;36.38;32.22;99131.31;5094807;28;20195;-63
2023/06/25 09:25:22;;;;;;;6.25;5.82;;;;;;;36.31;31.89;99141.50;5093230;28;20191;-64
2023/06/25 09:27:49;;;;;;;6.00;5.50;;;;;;;36.35;31.54;99147.91;5082969;28;20200;-64
2023/06/25 09:30:18;;;;;;;6.35;5.90;;;;;;;36.55;31.10;99139.06;5085048;28;20596;-66
2023/06/25 09:32:51;;;;;;;6.63;6.18;;;;;;;36.38;31.50;99141.63;5093332;28;20218;-64
2023/06/25 09:35:22;;;;;;;6.20;5.60;;;;;;;36.16;31.53;99134.13;5093208;28;20602;-62
2023/06/25 09:37:51;;;;;;;6.18;5.75;;;;;;;36.39;30.79;99144.00;5093841;28;20703;-63
2023/06/25 09:40:18;;;;;;;7.95;5.95;;;;;;;36.52;31.87;99130.72;5091973;28;20230;-63
2023/06/25 09:42:48;;;;;;;6.60;5.88;;;;;;;36.72;31.09;99118.34;5093573;28;20578;-63
2023/06/25 09:45:16;;;;;;;5.82;5.32;;;;;;;36.96;30.19;99106.75;5092296;28;20252;-63
2023/06/25 09:47:45;;;;;;;7.03;6.00;;;;;;;37.19;31.53;99115.72;5092523;28;20192;-63
2023/06/25 09:50:23;;;;;;;6.75;6.30;;;;;;;36.93;31.30;99115.81;5093476;28;20241;-63
2023/06/25 09:52:55;;;;;;;6.22;5.78;;;;;;;36.63;30.86;99123.34;5094293;28;20236;-62
2023/06/25 09:55:22;;;;;;;9.43;7.03;;;;;;;36.30;30.86;99106.72;5092499;28;20604;-66
2023/06/25 09:57:50;;;;;;;6.55;5.95;;;;;;;36.12;30.57;99108.41;5093494;28;20195;-62
2023/06/25 10:00:19;;;;;;;6.63;5.65;;;;;;;36.27;30.18;99102.75;5093653;28;20659;-62
2023/06/25 10:02:45;;;;;;;7.20;6.38;;;;;;;36.38;30.29;99097.34;5089315;28;20257;-63
2023/06/25 10:05:12;;;;;;;6.85;6.30;;;;;;;36.27;31.30;99096.38;5085109;28;20203;-63
2023/06/25 10:07:39;;;;;;;7.45;6.38;;;;;;;36.23;31.63;99087.25;5082563;28;20192;-66
2023/06/25 10:10:07;;;;;;;6.93;5.70;;;;;;;36.22;33.15;99077.34;5089912;28;20617;-65
2023/06/25 10:12:34;;;;;;;8.07;6.55;;;;;;;36.10;32.67;99074.78;5093504;28;20626;-65
2023/06/25 10:15:04;;;;;;;7.50;6.80;;;;;;;35.97;33.07;99076.19;5091834;28;20221;-65
2023/06/25 10:17:31;;;;;;;7.30;6.47;;;;;;;35.92;33.59;99073.72;5093578;28;20187;-66
2023/06/25 10:20:00;;;;;;;7.03;6.43;;;;;;;35.76;32.32;99076.66;5093496;28;20187;-64
2023/06/25 10:22:28;;;;;;;8.48;6.40;;;;;;;35.42;34.08;99061.09;5093592;28;20678;-63
2023/06/25 10:24:56;;;;;;;7.22;6.50;;;;;;;35.26;33.60;99056.81;5091935;28;20191;-66
2023/06/25 10:27:29;;;;;;;7.05;6.45;;;;;;;35.15;34.36;99055.88;5098889;28;20224;-65
2023/06/25 10:29:57;;;;;;;7.00;6.40;;;;;;;35.15;33.51;99047.59;5111836;28;20218;-66
2023/06/25 10:32:26;;;;;;;6.72;6.18;;;;;;;35.18;32.98;99044.88;5112175;28;20222;-65
2023/06/25 10:34:54;;;;;;;7.20;6.70;;;;;;;35.18;33.10;99041.28;5112447;28;20226;-65
2023/06/25 10:37:21;;;;;;;6.15;5.85;;;;;;;35.44;33.06;99041.38;5090571;28;20621;-65
2023/06/25 10:39:48;;;;;;;7.05;6.47;;;;;;;35.75;32.02;99028.06;5093241;28;20191;-62
2023/06/25 10:42:15;;;;;;;6.60;6.20;;;;;;;35.87;32.41;99029.81;5093299;28;20274;-64
2023/06/25 10:44:42;;;;;;;6.82;6.45;;;;;;;35.44;33.03;99024.81;5092752;28;20195;-63
2023/06/25 10:47:10;;;;;;;6.70;6.30;;;;;;;35.54;33.85;99021.41;5092770;28;20203;-63
2023/06/25 10:49:39;;;;;;;7.60;6.88;;;;;;;35.74;33.71;99018.16;5093005;28;20728;-72
2023/06/25 10:52:07;;;;;;;11.27;6.25;;;;;;;35.87;34.11;99025.09;5093105;28;20249;-69
2023/06/25 10:54:34;;;;;;;10.50;7.45;;;;;;;35.75;35.38;99019.78;5088462;28;20215;-65
2023/06/25 10:57:08;;;;;;;7.60;6.97;;;;;;;35.56;33.84;99033.66;5079149;28;20242;-64
2023/06/25 10:59:35;;;;;;;8.50;7.18;;;;;;;35.49;33.60;99021.72;5079896;28;20325;-63
2023/06/25 11:02:15;;;;;;;7.25;6.70;;;;;;;35.41;33.69;99026.34;5091717;28;20191;-64
2023/06/25 11:04:50;;;;;;;9.43;7.00;;;;;;;35.32;34.58;99022.25;5085834;28;20248;-63
2023/06/25 11:07:18;;;;;;;7.30;6.75;;;;;;;35.28;34.43;99015.88;5092532;28;20190;-66
2023/06/25 11:09:46;;;;;;;6.60;6.10;;;;;;;35.25;32.97;99011.03;5092685;28;20727;-63
2023/06/25 11:12:12;;;;;;;8.55;7.13;;;;;;;35.42;33.29;99016.06;5091064;28;20226;-63
2023/06/25 11:14:39;;;;;;;7.47;6.85;;;;;;;35.37;33.83;99005.34;5091527;28;20215;-63
2023/06/25 11:17:06;;;;;;;7.00;6.50;;;;;;;35.31;33.95;98998.56;5082705;28;20623;-64
2023/06/25 11:19:33;;;;;;;6.90;6.50;;;;;;;35.08;34.88;98997.75;5090670;28;20593;-63
2023/06/25 11:22:05;;;;;;;8.60;6.55;;;;;;;35.13;34.95;98997.41;5091796;28;20188;-63
2023/06/25 11:24:34;;;;;;;7.57;7.03;;;;;;;35.02;34.47;98999.22;5091802;28;20647;-63
2023/06/25 11:27:01;;;;;;;7.45;7.05;;;;;;;35.03;33.99;98995.28;5088874;28;20195;-64
2023/06/25 11:29:36;;;;;;;7.38;6.68;;;;;;;35.02;34.60;98996.47;5091868;28;20191;-63
2023/06/25 11:32:05;;;;;;;6.95;6.25;;;;;;;34.94;33.69;99003.03;5089479;28;20218;-63